Gelantipy, Australia
Current Conditions -  °F | °C
As of 10:00 AM on Sunday 21 Dec 2014 (Local Time) from YCOM Reporting Station
Clear Clear  
Wind Chill: 70°   Ceiling: Unl
Heat Index: 70°   Visibility: 6mi
Dew Point: 55°   Wind: 12mph
Humidity: 60%   Direction: 50°NE
Pressure: 30.06"   Gusts: NA
Location:  37.22°S, 148.26°E
Report Text: YCOM 202300Z AUTO 05010KT 9999 // NCD 21/13 Q1018
Loading
Personal Weather Stations






























Interactive Weather Map New forecast layout! Learn more

10-Day Weather Forecast

Advertisements
Track Severe Weather on mobile